Kahuku, Hawaii
Current Conditions -  °F | °C
As of 1:58 AM on Friday 24 Oct 2014 (Local Time) from PHHI Reporting Station
Drizzle Drizzle  
Wind Chill: 71°   Ceiling: 2500
Heat Index: 71°   Visibility: 9mi
Dew Point: 68°   Wind: 2mph
Humidity: 90%   Direction: 50°NE
Pressure: 30.03"   Gusts: NA
Location:  21.67°N, 157.94°W
Report Text: PHHI 241158Z 05002KT 9SM -DZ BKN025 22/20 A3003 RMK AO2A SLP158 P0001 60001 70002 T02180201 10237 20216 57014 $
Loading
Personal Weather Stations






























Interactive Weather Map New forecast layout! Learn more

10-Day Weather Forecast

Advertisements
Track Severe Weather on mobile